This is the latest recevied weather packets stored in our database for station/object OK2ZI. If no packets are shown the sender has not sent any weather packets the latest 10 day(s).
| Time | Temp. | Humidity | Pressure | Rain* | Wind** | Luminosity | Snow |
|---|---|---|---|---|---|---|---|
| 1777869367 | 10° C | 67% | 1012 hPa | 0 mm | - | - | - |
| 1777869127 | 10° C | 67% | 1011 hPa | 0 mm | - | - | - |
| 1777868411 | 7.78° C | 71% | 1012 hPa | 0 mm | - | - | - |
| 1777868166 | 7.22° C | 74% | 1012 hPa | 0 mm | - | - | - |
| 1777867447 | 6.67° C | 75% | 1011 hPa | 0 mm | - | - | - |
| 1777867224 | 6.11° C | 76% | 1012 hPa | 0 mm | - | - | - |
| 1777866726 | 5.56° C | 76% | 1012 hPa | 0 mm | - | - | - |
| 1777866011 | 8.33° C | 71% | 1012 hPa | 0 mm | - | - | - |
| 1777865766 | 8.33° C | 71% | 1012 hPa | 0 mm | - | - | - |
| 1777864812 | 7.78° C | 70% | 1012 hPa | 0 mm | - | - | - |
| 1777860247 | 8.33° C | 66% | 1012 hPa | 0 mm | - | - | - |
| 1777859286 | 7.78° C | 69% | 1012 hPa | 0 mm | - | - | - |
| 1777858812 | 7.78° C | 68% | 1012 hPa | 0 mm | - | - | - |
| 1777857611 | 7.78° C | 67% | 1012 hPa | 0 mm | - | - | - |
| 1777855686 | 8.89° C | 62% | 1012 hPa | 0 mm | - | - | - |
| 1777854966 | 7.78° C | 65% | 1012 hPa | 0 mm | - | - | - |
| 1777854487 | 8.33° C | 66% | 1012 hPa | 0 mm | - | - | - |
| 1777853047 | 10° C | 59% | 1012 hPa | 0 mm | - | - | - |
| 1777852819 | 10° C | 59% | 1012 hPa | 0 mm | - | - | - |
| 1777851611 | 9.44° C | 61% | 1012 hPa | 0 mm | - | - | - |
| 1777851246 | 9.44° C | 60% | 1012 hPa | 0 mm | - | - | - |
| 1777851126 | 10° C | 60% | 1012 hPa | 0 mm | - | - | - |
| 1777850887 | 10° C | 59% | 1012 hPa | 0 mm | - | - | - |
| 1777850527 | 10.56° C | 58% | 1012 hPa | 0 mm | - | - | - |
| 1777850167 | 10.56° C | 58% | 1012 hPa | 0 mm | - | - | - |
* Rain latest hour (hover to see other rain measurements)
** Current wind speed in m/s (hover to see current wind gust speed)